createdAt,value
2018-06-15T00:00:18.356Z,12.73
2018-06-15T00:02:51.760Z,13.28
2018-06-15T00:05:19.841Z,15.05
2018-06-15T00:07:47.900Z,13.95
2018-06-15T00:10:15.945Z,14.13
2018-06-15T00:12:44.009Z,14.07
2018-06-15T00:15:12.060Z,16.45
2018-06-15T00:17:40.124Z,16.67
2018-06-15T00:20:08.168Z,14.15
2018-06-15T00:22:36.220Z,17.80
2018-06-15T00:25:04.274Z,13.60
2018-06-15T00:27:32.351Z,15.60
2018-06-15T00:30:00.397Z,16.42
2018-06-15T00:32:28.461Z,15.53
2018-06-15T00:34:56.512Z,13.05
2018-06-15T00:37:24.555Z,15.60
2018-06-15T00:39:52.633Z,18.07
2018-06-15T00:42:20.680Z,13.15
2018-06-15T00:44:48.728Z,15.55
2018-06-15T00:47:16.784Z,16.42
2018-06-15T00:49:44.823Z,11.63
2018-06-15T00:52:12.876Z,14.40
2018-06-15T00:54:40.922Z,10.98
2018-06-15T00:57:20.484Z,14.98
2018-06-15T00:59:48.589Z,16.93
2018-06-15T01:02:16.663Z,13.70
2018-06-15T01:04:44.727Z,16.82
2018-06-15T01:07:12.800Z,20.17
2018-06-15T01:09:40.844Z,19.25
2018-06-15T01:12:08.913Z,14.00
2018-06-15T01:14:36.956Z,14.40
2018-06-15T01:17:05.005Z,16.48
2018-06-15T01:19:33.056Z,17.77
2018-06-15T01:22:01.092Z,16.62
2018-06-15T01:24:29.151Z,16.45
2018-06-15T01:26:57.220Z,15.18
2018-06-15T01:29:25.284Z,17.70
2018-06-15T01:31:53.320Z,16.07
2018-06-15T01:34:21.371Z,15.58
2018-06-15T01:36:49.409Z,17.80
2018-06-15T01:39:17.471Z,22.27
2018-06-15T01:41:45.504Z,13.58
2018-06-15T01:44:13.552Z,15.90
2018-06-15T01:46:41.596Z,11.50
2018-06-15T01:49:09.668Z,12.45
2018-06-15T01:51:37.707Z,14.65
2018-06-15T01:54:05.756Z,14.10
2018-06-15T01:56:33.804Z,10.15
2018-06-15T01:59:01.856Z,15.65
2018-06-15T02:01:29.949Z,17.48
2018-06-15T02:03:58.057Z,13.00
2018-06-15T02:06:26.093Z,14.33
2018-06-15T02:08:54.147Z,11.85
2018-06-15T02:11:23.795Z,17.52
2018-06-15T02:13:51.844Z,11.50
2018-06-15T02:16:19.956Z,14.93
2018-06-15T02:18:48.003Z,9.63
2018-06-15T02:21:16.044Z,15.48
2018-06-15T02:23:44.118Z,14.23
2018-06-15T02:26:12.202Z,11.88
2018-06-15T02:28:40.243Z,15.35
2018-06-15T02:31:08.280Z,11.48
2018-06-15T02:33:36.352Z,12.95
2018-06-15T02:36:04.407Z,16.25
2018-06-15T02:38:32.441Z,10.75
2018-06-15T02:41:00.519Z,10.13
2018-06-15T02:43:28.585Z,10.45
2018-06-15T02:45:56.620Z,12.78
2018-06-15T02:48:24.673Z,13.75
2018-06-15T02:50:52.724Z,12.33
2018-06-15T02:53:20.797Z,12.47
2018-06-15T02:55:48.841Z,11.05
2018-06-15T02:58:16.904Z,8.80
2018-06-15T03:00:44.963Z,14.25
2018-06-15T03:03:13.040Z,11.83
2018-06-15T03:05:41.248Z,11.48
2018-06-15T03:08:09.292Z,12.88
2018-06-15T03:10:37.419Z,9.88
2018-06-15T03:13:05.464Z,12.07
2018-06-15T03:15:33.523Z,12.50
2018-06-15T03:18:01.608Z,13.70
2018-06-15T03:20:29.668Z,10.68
2018-06-15T03:22:57.704Z,12.15
2018-06-15T03:25:25.794Z,11.83
2018-06-15T03:27:53.840Z,9.75
2018-06-15T03:30:21.888Z,14.10
2018-06-15T03:32:49.920Z,9.25
2018-06-15T03:35:17.977Z,12.47
2018-06-15T03:37:46.020Z,13.58
2018-06-15T03:40:14.088Z,12.47
2018-06-15T03:42:42.140Z,12.25
2018-06-15T03:45:10.193Z,11.33
2018-06-15T03:47:38.239Z,10.65
2018-06-15T03:50:06.304Z,13.25
2018-06-15T03:52:34.364Z,9.65
2018-06-15T03:55:02.424Z,10.95
2018-06-15T03:57:30.473Z,10.38
2018-06-15T03:59:58.530Z,11.03
2018-06-15T04:02:26.613Z,9.95
2018-06-15T04:04:54.668Z,10.10
2018-06-15T04:07:22.714Z,12.93
2018-06-15T04:09:50.760Z,11.65
2018-06-15T04:12:18.819Z,12.50
2018-06-15T04:14:46.966Z,10.82
2018-06-15T04:17:15.028Z,8.40
2018-06-15T04:19:43.112Z,15.63
2018-06-15T04:22:11.151Z,9.20
2018-06-15T04:24:39.220Z,8.60
2018-06-15T04:27:07.247Z,8.83
2018-06-15T04:29:35.441Z,12.03
2018-06-15T04:32:03.493Z,10.72
2018-06-15T04:34:31.561Z,6.65
2018-06-15T04:36:59.605Z,9.95
2018-06-15T04:39:27.664Z,10.72
2018-06-15T04:41:55.704Z,10.30
2018-06-15T04:44:23.764Z,7.30
2018-06-15T04:46:51.814Z,8.85
2018-06-15T04:49:19.865Z,8.70
2018-06-15T04:51:47.924Z,8.93
2018-06-15T04:54:15.980Z,10.40
2018-06-15T04:56:44.042Z,10.40
2018-06-15T04:59:12.079Z,11.33
2018-06-15T05:01:40.154Z,13.80
2018-06-15T05:04:08.195Z,9.50
2018-06-15T05:06:36.243Z,6.50
2018-06-15T05:09:06.980Z,6.95
2018-06-15T05:11:35.032Z,7.67
2018-06-15T05:14:03.073Z,7.53
2018-06-15T05:16:31.144Z,9.25
2018-06-15T05:18:59.193Z,6.65
2018-06-15T05:21:27.244Z,7.30
2018-06-15T05:23:55.284Z,7.15
2018-06-15T05:26:23.352Z,8.05
2018-06-15T05:28:51.420Z,6.33
2018-06-15T05:31:19.497Z,12.47
2018-06-15T05:33:47.539Z,9.05
2018-06-15T05:36:15.638Z,9.05
2018-06-15T05:38:43.722Z,8.10
2018-06-15T05:41:11.780Z,8.55
2018-06-15T05:43:39.828Z,11.90
2018-06-15T05:46:08.004Z,11.83
2018-06-15T05:48:36.060Z,7.50
2018-06-15T05:51:04.121Z,5.97
2018-06-15T05:53:32.261Z,7.83
2018-06-15T05:56:00.315Z,5.37
2018-06-15T05:58:28.377Z,4.65
2018-06-15T06:00:56.468Z,8.58
2018-06-15T06:03:24.540Z,5.67
2018-06-15T06:05:52.641Z,11.43
2018-06-15T06:08:21.183Z,6.95
2018-06-15T06:10:49.871Z,6.70
2018-06-15T06:13:18.305Z,6.17
2018-06-15T06:15:46.518Z,7.22
2018-06-15T06:18:14.582Z,8.43
2018-06-15T06:20:42.644Z,8.05
2018-06-15T06:23:10.708Z,7.05
2018-06-15T06:25:38.784Z,9.10
2018-06-15T06:28:06.836Z,8.83
2018-06-15T06:30:34.896Z,8.18
2018-06-15T06:33:02.961Z,7.92
2018-06-15T06:35:31.001Z,8.90
2018-06-15T06:37:59.079Z,9.55
2018-06-15T06:40:27.129Z,10.20
2018-06-15T06:42:55.198Z,6.47
2018-06-15T06:45:23.242Z,4.92
2018-06-15T06:47:51.324Z,6.58
2018-06-15T06:50:19.371Z,5.60
2018-06-15T06:52:47.441Z,6.55
2018-06-15T06:55:15.506Z,5.72
2018-06-15T06:57:43.597Z,5.17
2018-06-15T07:00:11.657Z,4.92
2018-06-15T07:02:39.761Z,7.80
2018-06-15T07:05:07.828Z,6.65
2018-06-15T07:07:35.881Z,5.42
2018-06-15T07:10:03.955Z,6.50
2018-06-15T07:12:32.004Z,6.83
2018-06-15T07:15:00.070Z,6.00
2018-06-15T07:17:28.124Z,7.35
2018-06-15T07:19:56.172Z,6.87
2018-06-15T07:22:24.229Z,5.03
2018-06-15T07:24:52.301Z,6.72
2018-06-15T07:27:20.893Z,4.72
2018-06-15T07:29:48.964Z,10.53
2018-06-15T07:32:17.037Z,7.08
2018-06-15T07:34:45.080Z,6.25
2018-06-15T07:37:13.157Z,7.37
2018-06-15T07:39:41.228Z,7.60
2018-06-15T07:42:09.306Z,7.90
2018-06-15T07:44:37.368Z,12.18
2018-06-15T07:47:05.452Z,8.00
2018-06-15T07:49:33.512Z,11.12
2018-06-15T07:52:01.632Z,10.45
2018-06-15T07:54:29.676Z,15.10
2018-06-15T07:56:57.738Z,14.98
2018-06-15T07:59:25.835Z,13.58
2018-06-15T08:01:53.868Z,13.05
2018-06-15T08:04:22.105Z,11.10
2018-06-15T08:06:50.293Z,15.55
2018-06-15T08:09:18.753Z,16.70
2018-06-15T08:11:46.817Z,15.68
2018-06-15T08:14:14.908Z,19.35
2018-06-15T08:16:42.985Z,18.05
2018-06-15T08:19:11.048Z,14.45
2018-06-15T08:21:39.096Z,17.32
2018-06-15T08:24:07.479Z,22.77
2018-06-15T08:26:35.607Z,29.25
2018-06-15T08:29:03.675Z,20.97
2018-06-15T08:31:31.749Z,18.32
2018-06-15T08:33:59.830Z,21.20
2018-06-15T08:36:27.910Z,19.73
2018-06-15T08:38:55.996Z,29.85
2018-06-15T08:41:24.052Z,23.25
2018-06-15T08:43:52.165Z,14.98
2018-06-15T08:46:20.206Z,14.73
2018-06-15T08:48:48.282Z,26.30
2018-06-15T08:51:16.316Z,20.82
2018-06-15T08:53:44.441Z,19.17
2018-06-15T08:56:12.537Z,26.27
2018-06-15T08:58:40.601Z,15.70
2018-06-15T09:01:08.648Z,17.90
2018-06-15T09:03:36.832Z,21.12
2018-06-15T09:06:04.888Z,14.05
2018-06-15T09:08:32.964Z,18.15
2018-06-15T09:11:01.020Z,22.70
2018-06-15T09:13:29.084Z,18.92
2018-06-15T09:15:57.154Z,22.20
2018-06-15T09:18:25.212Z,18.37
2018-06-15T09:20:53.299Z,22.52
2018-06-15T09:23:21.357Z,20.70
2018-06-15T09:25:50.052Z,21.90
2018-06-15T09:28:18.128Z,20.68
2018-06-15T09:30:46.238Z,23.20
2018-06-15T09:33:14.308Z,15.83
2018-06-15T09:35:42.359Z,18.95
2018-06-15T09:38:10.424Z,18.55
2018-06-15T09:40:38.477Z,21.65
2018-06-15T09:43:06.821Z,21.00
2018-06-15T09:45:35.126Z,21.77
2018-06-15T09:48:03.205Z,27.67
2018-06-15T09:50:31.290Z,23.27
2018-06-15T09:52:59.437Z,29.20
2018-06-15T09:55:27.428Z,25.65
2018-06-15T09:57:55.494Z,23.70
2018-06-15T10:00:29.028Z,29.67
2018-06-15T10:02:57.084Z,35.80
2018-06-15T10:05:25.128Z,30.85
2018-06-15T10:07:53.225Z,34.33
2018-06-15T10:10:21.288Z,46.68
2018-06-15T10:12:49.332Z,33.50
2018-06-15T10:15:17.395Z,31.70
2018-06-15T10:17:45.468Z,38.83
2018-06-15T10:20:13.526Z,26.42
2018-06-15T10:22:41.559Z,38.73
2018-06-15T10:25:09.635Z,52.03
2018-06-15T10:27:37.668Z,35.25
2018-06-15T10:30:05.774Z,50.70
2018-06-15T10:32:33.842Z,39.63
2018-06-15T10:35:01.904Z,42.85
2018-06-15T10:37:29.956Z,41.68
2018-06-15T10:39:58.000Z,34.27
2018-06-15T10:42:26.054Z,35.35
2018-06-15T10:44:54.117Z,36.30
2018-06-15T10:47:22.159Z,39.63
2018-06-15T10:49:50.244Z,28.70
2018-06-15T10:52:18.334Z,34.30
2018-06-15T10:54:46.396Z,27.80
2018-06-15T10:57:14.480Z,24.90
2018-06-15T10:59:42.548Z,31.95
2018-06-15T11:02:10.592Z,27.73
2018-06-15T11:04:38.660Z,27.45
2018-06-15T11:07:06.764Z,29.60
2018-06-15T11:09:34.839Z,29.52
2018-06-15T11:12:02.899Z,28.42
2018-06-15T11:14:30.972Z,27.22
2018-06-15T11:16:59.044Z,27.40
2018-06-15T11:19:27.095Z,24.37
2018-06-15T11:21:55.147Z,27.25
2018-06-15T11:24:23.258Z,24.37
2018-06-15T11:26:51.295Z,27.42
2018-06-15T11:29:19.393Z,21.57
2018-06-15T11:31:47.462Z,22.50
2018-06-15T11:34:15.521Z,22.02
2018-06-15T11:36:43.569Z,28.02
2018-06-15T11:39:11.712Z,32.33
2018-06-15T11:41:39.757Z,39.23
2018-06-15T11:44:07.806Z,40.20
2018-06-15T11:46:35.973Z,38.78
2018-06-15T11:49:04.108Z,44.65
2018-06-15T11:51:32.238Z,47.33
2018-06-15T11:54:00.280Z,38.98
2018-06-15T11:56:28.378Z,40.15
2018-06-15T11:58:56.449Z,63.33
2018-06-15T12:01:24.516Z,60.55
2018-06-15T12:03:52.684Z,46.10
2018-06-15T12:06:20.760Z,43.55
2018-06-15T12:08:48.816Z,39.13
2018-06-15T12:11:16.884Z,60.58
2018-06-15T12:13:44.952Z,67.78
2018-06-15T12:16:12.996Z,57.23
2018-06-15T12:18:41.092Z,53.48
2018-06-15T12:21:09.137Z,46.05
2018-06-15T12:23:37.244Z,54.95
2018-06-15T12:26:05.548Z,64.47
2018-06-15T12:28:33.649Z,49.75
2018-06-15T12:31:01.768Z,46.25
2018-06-15T12:33:29.822Z,46.37
2018-06-15T12:35:57.973Z,51.28
2018-06-15T12:38:26.073Z,61.48
2018-06-15T12:40:54.129Z,40.63
2018-06-15T12:43:22.177Z,47.90
2018-06-15T12:45:50.448Z,58.58
2018-06-15T12:48:18.496Z,66.07
2018-06-15T12:50:46.560Z,54.05
2018-06-15T12:53:14.696Z,53.92
2018-06-15T12:55:42.772Z,51.40
2018-06-15T12:58:10.813Z,65.65
2018-06-15T13:00:38.867Z,74.65
2018-06-15T13:03:06.966Z,84.75
2018-06-15T13:05:35.015Z,90.45
2018-06-15T13:08:03.187Z,49.95
2018-06-15T13:10:31.291Z,68.70
2018-06-15T13:12:59.381Z,54.38
2018-06-15T13:15:27.433Z,78.50
2018-06-15T13:17:55.543Z,67.82
2018-06-15T13:20:23.553Z,83.47
2018-06-15T13:22:51.720Z,118.10
2018-06-15T13:25:19.813Z,65.05
2018-06-15T13:27:47.885Z,63.87
2018-06-15T13:30:15.948Z,72.42
2018-06-15T13:32:44.008Z,65.30
2018-06-15T13:35:12.093Z,50.88
2018-06-15T13:37:40.204Z,57.27
2018-06-15T13:40:08.264Z,56.80
2018-06-15T13:42:36.310Z,65.72
2018-06-15T13:45:04.403Z,34.55
2018-06-15T13:47:32.470Z,38.25
2018-06-15T13:50:00.520Z,32.85
2018-06-15T13:52:28.580Z,42.85
2018-06-15T13:54:56.630Z,29.87
2018-06-15T13:57:24.680Z,37.73
2018-06-15T13:59:52.728Z,43.10
2018-06-15T14:02:20.800Z,32.85
2018-06-15T14:04:48.837Z,30.27
2018-06-15T14:07:17.260Z,30.68
2018-06-15T14:09:45.421Z,49.03
2018-06-15T14:12:13.472Z,38.65
2018-06-15T14:14:41.522Z,31.50
2018-06-15T14:17:09.591Z,39.23
2018-06-15T14:19:37.656Z,37.45
2018-06-15T14:22:05.732Z,31.97
2018-06-15T14:24:33.777Z,31.90
2018-06-15T14:27:01.840Z,36.50
2018-06-15T14:29:29.899Z,39.23
2018-06-15T14:31:57.960Z,35.48
2018-06-15T14:34:26.045Z,36.68
2018-06-15T14:36:54.169Z,36.63
2018-06-15T14:39:22.228Z,35.58
2018-06-15T14:41:51.345Z,38.70
2018-06-15T14:44:19.415Z,37.30
2018-06-15T14:46:47.485Z,47.48
2018-06-15T14:49:15.520Z,35.28
2018-06-15T14:51:43.576Z,42.03
2018-06-15T14:54:11.640Z,34.70
2018-06-15T14:56:39.756Z,48.35
2018-06-15T14:59:07.821Z,30.00
2018-06-15T15:01:35.881Z,38.42
2018-06-15T15:04:03.937Z,49.40
2018-06-15T15:06:31.991Z,34.98
2018-06-15T15:09:00.057Z,32.53
2018-06-15T15:11:28.116Z,36.63
2018-06-15T15:13:56.184Z,34.58
2018-06-15T15:16:24.285Z,39.78
2018-06-15T15:18:52.344Z,30.82
2018-06-15T15:21:20.432Z,45.10
2018-06-15T15:23:48.460Z,34.08
2018-06-15T15:26:16.516Z,43.92
2018-06-15T15:28:44.643Z,39.53
2018-06-15T15:31:12.705Z,28.87
2018-06-15T15:33:40.794Z,60.73
2018-06-15T15:36:08.913Z,37.85
2018-06-15T15:38:37.027Z,26.82
2018-06-15T15:41:05.120Z,30.62
2018-06-15T15:43:33.193Z,30.88
2018-06-15T15:46:01.221Z,35.70
2018-06-15T15:48:29.281Z,30.55
2018-06-15T15:50:57.333Z,32.23
2018-06-15T15:53:25.648Z,30.37
2018-06-15T15:55:53.687Z,35.92
2018-06-15T15:58:22.291Z,32.65
2018-06-15T16:00:50.337Z,34.23
2018-06-15T16:03:18.387Z,37.13
2018-06-15T16:05:46.432Z,38.35
2018-06-15T16:08:14.492Z,30.68
2018-06-15T16:10:42.544Z,23.70
2018-06-15T16:13:10.646Z,24.12
2018-06-15T16:15:38.650Z,34.35
2018-06-15T16:18:06.716Z,33.33
2018-06-15T16:20:34.752Z,26.93
2018-06-15T16:23:02.811Z,25.17
2018-06-15T16:25:30.880Z,22.55
2018-06-15T16:27:58.940Z,32.40
2018-06-15T16:30:26.977Z,29.67
2018-06-15T16:32:55.034Z,31.93
2018-06-15T16:35:23.096Z,34.92
2018-06-15T16:37:51.352Z,36.60
2018-06-15T16:40:19.392Z,35.95
2018-06-15T16:42:47.479Z,39.08
2018-06-15T16:45:15.525Z,37.30
2018-06-15T16:47:43.587Z,27.22
2018-06-15T16:50:11.629Z,37.00
2018-06-15T16:52:39.676Z,29.12
2018-06-15T16:55:07.727Z,53.35
2018-06-15T16:57:35.776Z,39.63
2018-06-15T17:00:03.870Z,52.98
2018-06-15T17:02:31.977Z,34.03
2018-06-15T17:04:59.997Z,32.45
2018-06-15T17:07:28.128Z,29.07
2018-06-15T17:09:56.224Z,36.03
2018-06-15T17:12:24.256Z,29.02
2018-06-15T17:14:52.304Z,30.57
2018-06-15T17:17:20.346Z,27.25
2018-06-15T17:19:48.408Z,41.35
2018-06-15T17:22:16.461Z,28.23
2018-06-15T17:24:44.536Z,28.07
2018-06-15T17:27:12.620Z,45.23
2018-06-15T17:29:40.703Z,33.98
2018-06-15T17:32:08.752Z,23.27
2018-06-15T17:34:36.812Z,29.63
2018-06-15T17:37:05.071Z,30.10
2018-06-15T17:40:00.762Z,26.93
2018-06-15T17:42:28.929Z,20.52
2018-06-15T17:44:57.040Z,23.98
2018-06-15T17:47:25.089Z,21.60
2018-06-15T17:49:53.147Z,23.98
2018-06-15T17:52:21.200Z,29.18
2018-06-15T17:54:49.264Z,31.77
2018-06-15T17:57:17.321Z,23.18
2018-06-15T17:59:45.401Z,33.83
2018-06-15T18:02:13.473Z,47.08
2018-06-15T18:04:41.540Z,24.63
2018-06-15T18:07:09.622Z,28.80
2018-06-15T18:09:37.707Z,34.98
2018-06-15T18:12:07.754Z,25.37
2018-06-15T18:14:35.938Z,23.75
2018-06-15T18:17:04.005Z,23.90
2018-06-15T18:19:32.086Z,28.98
2018-06-15T18:22:00.180Z,35.35
2018-06-15T18:24:28.320Z,37.85
2018-06-15T18:26:56.416Z,26.97
2018-06-15T18:29:24.508Z,27.13
2018-06-15T18:31:52.624Z,31.10
2018-06-15T18:34:20.864Z,23.62
2018-06-15T18:36:48.959Z,23.05
2018-06-15T18:39:17.063Z,30.45
2018-06-15T18:41:45.332Z,36.05
2018-06-15T18:44:13.863Z,24.12
2018-06-15T18:46:41.944Z,26.33
2018-06-15T18:49:10.845Z,19.85
2018-06-15T18:51:39.501Z,22.93
2018-06-15T18:54:07.576Z,24.57
2018-06-15T18:56:35.630Z,20.90
2018-06-15T18:59:03.725Z,17.27
2018-06-15T19:01:32.890Z,16.30
2018-06-15T19:04:01.051Z,18.50
2018-06-15T19:06:29.108Z,18.35
2018-06-15T19:08:57.185Z,19.12
2018-06-15T19:11:25.248Z,17.77
2018-06-15T19:13:54.339Z,17.25
2018-06-15T19:16:22.396Z,16.20
2018-06-15T19:18:51.351Z,13.10
2018-06-15T19:21:21.417Z,21.55
2018-06-15T19:23:51.238Z,25.60
2018-06-15T19:26:19.538Z,16.67
2018-06-15T19:28:50.834Z,23.98
2018-06-15T19:31:21.888Z,18.05
2018-06-15T19:33:51.212Z,20.45
2018-06-15T19:36:21.453Z,21.60
2018-06-15T19:38:50.847Z,10.90
2018-06-15T19:41:26.260Z,16.12
2018-06-15T19:43:54.338Z,16.45
2018-06-15T19:46:23.365Z,18.52
2018-06-15T19:48:52.562Z,14.33
2018-06-15T19:51:23.060Z,21.33
2018-06-15T19:53:53.076Z,27.35
2018-06-15T19:56:22.784Z,16.40
2018-06-15T19:58:51.837Z,15.23
2018-06-15T20:01:20.644Z,16.67
2018-06-15T20:03:49.536Z,13.80
2018-06-15T20:06:17.670Z,15.25
2018-06-15T20:08:45.728Z,10.45
2018-06-15T20:11:13.809Z,12.93
2018-06-15T20:13:42.097Z,19.37
2018-06-15T20:16:10.172Z,17.07
2018-06-15T20:18:39.410Z,9.55
2018-06-15T20:21:07.521Z,12.35
2018-06-15T20:23:36.402Z,9.08
2018-06-15T20:26:04.503Z,13.62
2018-06-15T20:28:32.565Z,12.13
2018-06-15T20:31:00.689Z,11.75
2018-06-15T20:33:28.785Z,12.70
2018-06-15T20:35:56.855Z,16.90
2018-06-15T20:38:24.924Z,11.48
2018-06-15T20:40:53.027Z,13.28
2018-06-15T20:43:21.094Z,16.12
2018-06-15T20:45:49.150Z,12.82
2018-06-15T20:48:17.205Z,13.72
2018-06-15T20:50:45.291Z,10.80
2018-06-15T20:53:13.385Z,10.38
2018-06-15T20:55:41.429Z,11.00
2018-06-15T20:58:09.506Z,11.35
2018-06-15T21:00:37.596Z,11.60
2018-06-15T21:03:05.652Z,13.25
2018-06-15T21:05:33.737Z,9.53
2018-06-15T21:08:01.824Z,8.00
2018-06-15T21:10:29.900Z,16.50
2018-06-15T21:12:57.960Z,7.95
2018-06-15T21:15:26.028Z,10.10
2018-06-15T21:17:54.077Z,10.98
2018-06-15T21:20:22.129Z,17.30
2018-06-15T21:22:50.189Z,13.10
2018-06-15T21:25:18.259Z,18.75
2018-06-15T21:27:46.347Z,12.15
2018-06-15T21:30:14.400Z,12.30
2018-06-15T21:32:42.489Z,7.87
2018-06-15T21:35:10.545Z,14.25
2018-06-15T21:37:38.603Z,8.03
2018-06-15T21:40:06.659Z,8.60
2018-06-15T21:42:34.776Z,5.05
2018-06-15T21:45:02.777Z,6.87
2018-06-15T21:47:30.824Z,6.50
2018-06-15T21:49:58.868Z,7.55
2018-06-15T21:52:26.948Z,10.93
2018-06-15T21:54:55.123Z,9.53
2018-06-15T21:57:23.224Z,8.18
2018-06-15T21:59:51.272Z,11.88
2018-06-15T22:02:19.336Z,12.95
2018-06-15T22:04:47.400Z,13.70
2018-06-15T22:07:15.466Z,20.08
2018-06-15T22:09:43.516Z,10.13
2018-06-15T22:12:11.588Z,11.08
2018-06-15T22:14:39.632Z,7.75
2018-06-15T22:17:07.709Z,7.85
2018-06-15T22:20:00.637Z,10.43
2018-06-15T22:22:28.855Z,12.30
2018-06-15T22:24:56.916Z,9.45
2018-06-15T22:27:25.019Z,8.15
2018-06-15T22:29:53.057Z,5.70
2018-06-15T22:32:21.145Z,5.90
2018-06-15T22:34:49.185Z,7.42
2018-06-15T22:37:17.244Z,7.37
2018-06-15T22:39:45.417Z,7.67
2018-06-15T22:42:13.482Z,4.30
2018-06-15T22:44:41.565Z,5.97
2018-06-15T22:47:09.645Z,6.00
2018-06-15T22:49:37.697Z,6.55
2018-06-15T22:52:05.929Z,5.47
2018-06-15T22:54:34.065Z,9.60
2018-06-15T22:57:02.114Z,6.50
2018-06-15T22:59:30.165Z,10.15
2018-06-15T23:01:58.251Z,11.40
2018-06-15T23:04:26.321Z,5.47
2018-06-15T23:06:54.381Z,8.48
2018-06-15T23:09:22.464Z,11.08
2018-06-15T23:11:50.597Z,7.40
2018-06-15T23:14:18.664Z,6.22
2018-06-15T23:16:46.736Z,7.50
2018-06-15T23:19:14.777Z,9.93
2018-06-15T23:21:42.848Z,7.08
2018-06-15T23:24:10.901Z,8.45
2018-06-15T23:26:38.992Z,6.17
2018-06-15T23:29:07.048Z,5.53
2018-06-15T23:31:35.113Z,6.87
2018-06-15T23:34:03.175Z,6.15
2018-06-15T23:36:31.232Z,7.28
2018-06-15T23:38:59.276Z,6.03
2018-06-15T23:41:27.327Z,5.62
2018-06-15T23:43:55.461Z,6.97
2018-06-15T23:46:23.520Z,6.10
2018-06-15T23:48:51.589Z,6.15
2018-06-15T23:51:19.674Z,5.28
2018-06-15T23:53:47.767Z,6.17
2018-06-15T23:56:15.814Z,4.55
2018-06-15T23:58:43.868Z,8.45
